sensor_id;sensor_type;location;lat;lon;timestamp;pressure;altitude;pressure_sealevel;temperature;humidity
21803;BME280;18591;47.080;22.214;2023-02-19T00:01:44;99527.69;;;12.03;58.71
21803;BME280;18591;47.080;22.214;2023-02-19T00:03:51;99525.00;;;12.03;58.89
21803;BME280;18591;47.080;22.214;2023-02-19T00:05:54;99524.09;;;12.02;58.91
21803;BME280;18591;47.080;22.214;2023-02-19T00:07:57;99522.22;;;12.04;58.63
21803;BME280;18591;47.080;22.214;2023-02-19T00:09:59;99518.78;;;12.01;58.82
21803;BME280;18591;47.080;22.214;2023-02-19T00:12:01;99529.63;;;11.99;58.78
21803;BME280;18591;47.080;22.214;2023-02-19T00:14:04;99523.56;;;11.94;58.95
21803;BME280;18591;47.080;22.214;2023-02-19T00:16:08;99518.38;;;11.89;58.95
21803;BME280;18591;47.080;22.214;2023-02-19T00:18:10;99514.97;;;11.84;59.27
21803;BME280;18591;47.080;22.214;2023-02-19T00:20:12;99515.94;;;11.83;59.56
21803;BME280;18591;47.080;22.214;2023-02-19T00:22:15;99517.88;;;11.80;59.10
21803;BME280;18591;47.080;22.214;2023-02-19T00:24:17;99516.22;;;11.77;59.42
21803;BME280;18591;47.080;22.214;2023-02-19T00:26:20;99526.97;;;11.77;59.12
21803;BME280;18591;47.080;22.214;2023-02-19T00:28:23;99514.56;;;11.73;59.17
21803;BME280;18591;47.080;22.214;2023-02-19T00:30:25;99528.13;;;11.71;59.14
21803;BME280;18591;47.080;22.214;2023-02-19T00:32:27;99529.31;;;11.64;59.60
21803;BME280;18591;47.080;22.214;2023-02-19T00:34:29;99540.13;;;11.63;59.59
21803;BME280;18591;47.080;22.214;2023-02-19T00:36:33;99529.44;;;11.61;59.32
21803;BME280;18591;47.080;22.214;2023-02-19T00:38:38;99537.72;;;11.57;59.26
21803;BME280;18591;47.080;22.214;2023-02-19T00:40:40;99533.25;;;11.55;59.64
21803;BME280;18591;47.080;22.214;2023-02-19T00:42:43;99529.63;;;11.57;59.25
21803;BME280;18591;47.080;22.214;2023-02-19T00:44:49;99544.00;;;11.55;59.37
21803;BME280;18591;47.080;22.214;2023-02-19T00:46:54;99542.31;;;11.53;59.51
21803;BME280;18591;47.080;22.214;2023-02-19T00:48:57;99538.72;;;11.54;59.13
21803;BME280;18591;47.080;22.214;2023-02-19T00:50:59;99544.16;;;11.52;59.02
21803;BME280;18591;47.080;22.214;2023-02-19T00:53:01;99533.53;;;11.49;59.53
21803;BME280;18591;47.080;22.214;2023-02-19T00:55:04;99536.41;;;11.45;59.26
21803;BME280;18591;47.080;22.214;2023-02-19T00:57:06;99531.19;;;11.40;59.03
21803;BME280;18591;47.080;22.214;2023-02-19T00:59:09;99529.59;;;11.36;58.99
21803;BME280;18591;47.080;22.214;2023-02-19T01:01:12;99533.16;;;11.37;59.12
21803;BME280;18591;47.080;22.214;2023-02-19T01:03:15;99526.09;;;11.34;59.29
21803;BME280;18591;47.080;22.214;2023-02-19T01:05:17;99529.66;;;11.34;58.94
21803;BME280;18591;47.080;22.214;2023-02-19T01:07:19;99543.41;;;11.27;59.06
21803;BME280;18591;47.080;22.214;2023-02-19T01:09:21;99536.47;;;11.21;58.99
21803;BME280;18591;47.080;22.214;2023-02-19T01:11:25;99542.72;;;11.22;59.00
21803;BME280;18591;47.080;22.214;2023-02-19T01:13:28;99543.28;;;11.08;58.94
21803;BME280;18591;47.080;22.214;2023-02-19T01:15:33;99542.53;;;11.04;58.45
21803;BME280;18591;47.080;22.214;2023-02-19T01:17:36;99547.91;;;11.04;59.00
21803;BME280;18591;47.080;22.214;2023-02-19T01:19:39;99547.13;;;11.02;58.53
21803;BME280;18591;47.080;22.214;2023-02-19T01:21:41;99548.03;;;11.01;58.38
21803;BME280;18591;47.080;22.214;2023-02-19T01:23:44;99554.72;;;10.91;58.39
21803;BME280;18591;47.080;22.214;2023-02-19T01:25:47;99550.28;;;10.90;58.60
21803;BME280;18591;47.080;22.214;2023-02-19T01:27:49;99554.97;;;10.85;58.63
21803;BME280;18591;47.080;22.214;2023-02-19T01:29:51;99556.78;;;10.84;58.35
21803;BME280;18591;47.080;22.214;2023-02-19T01:31:53;99554.13;;;10.83;58.27
21803;BME280;18591;47.080;22.214;2023-02-19T01:33:58;99550.88;;;10.75;58.48
21803;BME280;18591;47.080;22.214;2023-02-19T01:36:05;99553.91;;;10.65;57.94
21803;BME280;18591;47.080;22.214;2023-02-19T01:38:07;99555.13;;;10.57;58.58
21803;BME280;18591;47.080;22.214;2023-02-19T01:40:09;99541.75;;;10.55;58.34
21803;BME280;18591;47.080;22.214;2023-02-19T01:42:15;99552.63;;;10.52;58.33
21803;BME280;18591;47.080;22.214;2023-02-19T01:46:30;99546.72;;;10.42;57.84
21803;BME280;18591;47.080;22.214;2023-02-19T01:48:36;99561.09;;;10.41;58.28
21803;BME280;18591;47.080;22.214;2023-02-19T01:50:44;99548.81;;;10.34;58.27
21803;BME280;18591;47.080;22.214;2023-02-19T01:52:48;99563.91;;;10.38;58.13
21803;BME280;18591;47.080;22.214;2023-02-19T01:54:52;99562.31;;;10.33;58.15
21803;BME280;18591;47.080;22.214;2023-02-19T01:56:56;99570.47;;;10.30;58.46
21803;BME280;18591;47.080;22.214;2023-02-19T01:59:00;99565.28;;;10.23;58.27
21803;BME280;18591;47.080;22.214;2023-02-19T02:01:06;99568.09;;;10.20;58.03
21803;BME280;18591;47.080;22.214;2023-02-19T02:03:09;99572.69;;;10.17;58.25
21803;BME280;18591;47.080;22.214;2023-02-19T02:07:39;99564.91;;;10.09;57.99
21803;BME280;18591;47.080;22.214;2023-02-19T02:10:00;99567.78;;;10.05;57.71
21803;BME280;18591;47.080;22.214;2023-02-19T02:12:21;99561.25;;;9.87;58.14
21803;BME280;18591;47.080;22.214;2023-02-19T02:14:29;99560.47;;;9.83;58.37
21803;BME280;18591;47.080;22.214;2023-02-19T02:31:04;99556.75;;;9.60;58.51
21803;BME280;18591;47.080;22.214;2023-02-19T02:33:40;99562.34;;;9.54;58.53
21803;BME280;18591;47.080;22.214;2023-02-19T02:36:05;99571.34;;;9.52;58.64
21803;BME280;18591;47.080;22.214;2023-02-19T02:38:11;99576.47;;;9.59;58.29
21803;BME280;18591;47.080;22.214;2023-02-19T02:40:18;99577.47;;;9.55;58.34
21803;BME280;18591;47.080;22.214;2023-02-19T02:42:20;99572.31;;;9.51;58.39
21803;BME280;18591;47.080;22.214;2023-02-19T02:44:43;99571.47;;;9.49;58.41
21803;BME280;18591;47.080;22.214;2023-02-19T02:47:08;99574.25;;;9.46;58.09
21803;BME280;18591;47.080;22.214;2023-02-19T02:49:32;99573.59;;;9.37;58.12
21803;BME280;18591;47.080;22.214;2023-02-19T02:51:58;99572.06;;;9.30;58.26
21803;BME280;18591;47.080;22.214;2023-02-19T02:54:26;99566.78;;;9.27;58.13
21803;BME280;18591;47.080;22.214;2023-02-19T02:56:53;99574.03;;;9.25;58.15
21803;BME280;18591;47.080;22.214;2023-02-19T02:58:57;99585.72;;;9.23;58.00
21803;BME280;18591;47.080;22.214;2023-02-19T03:01:05;99569.78;;;9.18;58.21
21803;BME280;18591;47.080;22.214;2023-02-19T03:03:28;99572.59;;;9.13;58.09
21803;BME280;18591;47.080;22.214;2023-02-19T03:05:32;99574.31;;;9.16;58.55
21803;BME280;18591;47.080;22.214;2023-02-19T03:08:14;99571.03;;;9.06;58.78
21803;BME280;18591;47.080;22.214;2023-02-19T03:10:35;99571.94;;;9.07;58.48
21803;BME280;18591;47.080;22.214;2023-02-19T03:12:40;99577.44;;;9.02;58.10
21803;BME280;18591;47.080;22.214;2023-02-19T03:15:06;99574.25;;;8.89;58.41
21803;BME280;18591;47.080;22.214;2023-02-19T03:17:48;99584.09;;;8.89;58.61
21803;BME280;18591;47.080;22.214;2023-02-19T03:20:13;99583.22;;;8.88;58.67
21803;BME280;18591;47.080;22.214;2023-02-19T03:22:21;99581.44;;;8.89;58.45
21803;BME280;18591;47.080;22.214;2023-02-19T03:24:30;99590.47;;;8.85;58.70
21803;BME280;18591;47.080;22.214;2023-02-19T03:26:55;99584.34;;;8.81;58.82
21803;BME280;18591;47.080;22.214;2023-02-19T03:29:03;99589.63;;;8.83;58.77
21803;BME280;18591;47.080;22.214;2023-02-19T03:31:36;99583.59;;;8.76;58.39
21803;BME280;18591;47.080;22.214;2023-02-19T03:33:40;99595.97;;;8.80;58.07
21803;BME280;18591;47.080;22.214;2023-02-19T03:35:47;99597.91;;;8.75;57.80
21803;BME280;18591;47.080;22.214;2023-02-19T03:39:58;99594.31;;;8.76;57.84
21803;BME280;18591;47.080;22.214;2023-02-19T03:42:30;99602.66;;;8.65;57.90
21803;BME280;18591;47.080;22.214;2023-02-19T03:44:44;99597.50;;;8.58;58.42
21803;BME280;18591;47.080;22.214;2023-02-19T03:47:14;99596.72;;;8.54;58.41
21803;BME280;18591;47.080;22.214;2023-02-19T03:49:28;99596.72;;;8.56;58.13
21803;BME280;18591;47.080;22.214;2023-02-19T03:51:40;99596.97;;;8.46;58.05
21803;BME280;18591;47.080;22.214;2023-02-19T03:53:51;99600.38;;;8.52;58.28
21803;BME280;18591;47.080;22.214;2023-02-19T04:04:38;99603.25;;;8.45;57.96
21803;BME280;18591;47.080;22.214;2023-02-19T04:06:46;99605.25;;;8.36;58.05
21803;BME280;18591;47.080;22.214;2023-02-19T04:08:57;99590.00;;;8.39;58.16
21803;BME280;18591;47.080;22.214;2023-02-19T04:11:00;99596.38;;;8.34;58.21
21803;BME280;18591;47.080;22.214;2023-02-19T04:13:34;99601.00;;;8.28;58.40
21803;BME280;18591;47.080;22.214;2023-02-19T04:15:41;99602.94;;;8.22;58.01
21803;BME280;18591;47.080;22.214;2023-02-19T04:18:14;99599.63;;;8.14;58.41
21803;BME280;18591;47.080;22.214;2023-02-19T04:20:19;99595.00;;;8.19;58.57
21803;BME280;18591;47.080;22.214;2023-02-19T04:22:23;99589.84;;;8.13;58.23
21803;BME280;18591;47.080;22.214;2023-02-19T04:25:06;99592.72;;;8.05;58.26
21803;BME280;18591;47.080;22.214;2023-02-19T04:27:02;99575.81;;;8.04;58.68
21803;BME280;18591;47.080;22.214;2023-02-19T04:29:09;99573.03;;;8.07;58.46
21803;BME280;18591;47.080;22.214;2023-02-19T04:31:11;99578.31;;;8.09;58.46
21803;BME280;18591;47.080;22.214;2023-02-19T04:33:14;99589.31;;;7.98;58.53
21803;BME280;18591;47.080;22.214;2023-02-19T04:35:16;99581.94;;;8.08;58.70
21803;BME280;18591;47.080;22.214;2023-02-19T04:37:18;99585.47;;;8.08;58.59
21803;BME280;18591;47.080;22.214;2023-02-19T04:39:21;99593.47;;;8.10;58.61
21803;BME280;18591;47.080;22.214;2023-02-19T04:41:23;99597.16;;;8.06;58.68
21803;BME280;18591;47.080;22.214;2023-02-19T04:43:26;99599.03;;;8.02;58.97
21803;BME280;18591;47.080;22.214;2023-02-19T04:45:28;99598.31;;;7.96;58.81
21803;BME280;18591;47.080;22.214;2023-02-19T04:47:31;99598.06;;;8.05;58.59
21803;BME280;18591;47.080;22.214;2023-02-19T04:49:33;99599.91;;;8.03;58.41
21803;BME280;18591;47.080;22.214;2023-02-19T04:51:35;99607.91;;;8.04;58.10
21803;BME280;18591;47.080;22.214;2023-02-19T04:53:38;99607.06;;;8.02;58.12
21803;BME280;18591;47.080;22.214;2023-02-19T04:55:40;99601.81;;;7.99;58.26
21803;BME280;18591;47.080;22.214;2023-02-19T04:57:42;99606.34;;;7.96;58.01
21803;BME280;18591;47.080;22.214;2023-02-19T04:59:45;99620.66;;;7.95;58.15
21803;BME280;18591;47.080;22.214;2023-02-19T05:01:47;99612.66;;;7.93;58.25
21803;BME280;18591;47.080;22.214;2023-02-19T05:03:49;99609.22;;;7.88;58.17
21803;BME280;18591;47.080;22.214;2023-02-19T05:05:51;99600.31;;;7.88;58.30
21803;BME280;18591;47.080;22.214;2023-02-19T05:07:54;99601.44;;;7.79;58.61
21803;BME280;18591;47.080;22.214;2023-02-19T05:09:56;99602.78;;;7.61;58.42
21803;BME280;18591;47.080;22.214;2023-02-19T05:12:00;99599.94;;;7.67;58.37
21803;BME280;18591;47.080;22.214;2023-02-19T05:14:03;99599.94;;;7.67;58.76
21803;BME280;18591;47.080;22.214;2023-02-19T05:16:12;99603.63;;;7.63;58.42
21803;BME280;18591;47.080;22.214;2023-02-19T05:18:17;99607.06;;;7.68;58.05
21803;BME280;18591;47.080;22.214;2023-02-19T05:20:19;99615.91;;;7.70;58.36
21803;BME280;18591;47.080;22.214;2023-02-19T05:22:23;99613.28;;;7.69;58.79
21803;BME280;18591;47.080;22.214;2023-02-19T05:24:25;99606.94;;;7.73;58.33
21803;BME280;18591;47.080;22.214;2023-02-19T05:26:28;99603.31;;;7.75;58.63
21803;BME280;18591;47.080;22.214;2023-02-19T05:28:32;99602.50;;;7.73;58.46
21803;BME280;18591;47.080;22.214;2023-02-19T05:30:34;99599.19;;;7.62;58.88
21803;BME280;18591;47.080;22.214;2023-02-19T05:32:37;99582.47;;;7.54;59.04
21803;BME280;18591;47.080;22.214;2023-02-19T05:34:39;99578.75;;;7.59;59.06
21803;BME280;18591;47.080;22.214;2023-02-19T05:36:43;99584.09;;;7.59;59.28
21803;BME280;18591;47.080;22.214;2023-02-19T05:38:46;99588.59;;;7.57;58.93
21803;BME280;18591;47.080;22.214;2023-02-19T05:40:49;99595.84;;;7.54;59.10
21803;BME280;18591;47.080;22.214;2023-02-19T05:42:51;99586.75;;;7.61;59.38
21803;BME280;18591;47.080;22.214;2023-02-19T05:44:53;99597.56;;;7.55;59.65
21803;BME280;18591;47.080;22.214;2023-02-19T05:46:55;99587.78;;;7.55;59.54
21803;BME280;18591;47.080;22.214;2023-02-19T05:49:00;99585.13;;;7.55;60.02
21803;BME280;18591;47.080;22.214;2023-02-19T05:51:10;99583.13;;;7.63;59.68
21803;BME280;18591;47.080;22.214;2023-02-19T05:53:13;99589.34;;;7.64;59.40
21803;BME280;18591;47.080;22.214;2023-02-19T05:55:15;99588.50;;;7.62;59.76
21803;BME280;18591;47.080;22.214;2023-02-19T05:57:17;99587.63;;;7.61;59.87
21803;BME280;18591;47.080;22.214;2023-02-19T05:59:23;99582.25;;;7.63;59.86
21803;BME280;18591;47.080;22.214;2023-02-19T06:01:27;99597.38;;;7.62;60.30
21803;BME280;18591;47.080;22.214;2023-02-19T06:03:29;99601.88;;;7.62;60.55
21803;BME280;18591;47.080;22.214;2023-02-19T06:05:31;99589.31;;;7.66;60.56
21803;BME280;18591;47.080;22.214;2023-02-19T06:07:33;99602.59;;;7.69;60.73
21803;BME280;18591;47.080;22.214;2023-02-19T06:09:36;99606.06;;;7.72;60.78
21803;BME280;18591;47.080;22.214;2023-02-19T06:11:38;99594.56;;;7.69;60.58
21803;BME280;18591;47.080;22.214;2023-02-19T06:13:40;99587.53;;;7.64;60.97
21803;BME280;18591;47.080;22.214;2023-02-19T06:15:42;99596.41;;;7.67;61.08
21803;BME280;18591;47.080;22.214;2023-02-19T06:17:44;99588.22;;;7.73;60.89
21803;BME280;18591;47.080;22.214;2023-02-19T06:19:47;99581.09;;;7.73;60.94
21803;BME280;18591;47.080;22.214;2023-02-19T06:21:49;99578.41;;;7.73;60.71
21803;BME280;18591;47.080;22.214;2023-02-19T06:23:52;99575.69;;;7.75;60.88
21803;BME280;18591;47.080;22.214;2023-02-19T06:26:10;99563.13;;;7.78;61.53
21803;BME280;18591;47.080;22.214;2023-02-19T06:28:12;99571.97;;;7.80;61.02
21803;BME280;18591;47.080;22.214;2023-02-19T06:30:14;99574.59;;;7.83;60.93
21803;BME280;18591;47.080;22.214;2023-02-19T06:32:16;99584.47;;;7.80;61.96
21803;BME280;18591;47.080;22.214;2023-02-19T06:34:19;99587.78;;;7.90;61.20
21803;BME280;18591;47.080;22.214;2023-02-19T06:36:22;99586.72;;;7.97;62.39
21803;BME280;18591;47.080;22.214;2023-02-19T06:38:24;99603.38;;;8.06;62.17
21803;BME280;18591;47.080;22.214;2023-02-19T06:40:27;99589.22;;;8.03;61.95
21803;BME280;18591;47.080;22.214;2023-02-19T06:42:32;99602.41;;;8.09;62.70
21803;BME280;18591;47.080;22.214;2023-02-19T06:44:35;99602.09;;;8.21;62.95
21803;BME280;18591;47.080;22.214;2023-02-19T06:46:37;99599.09;;;8.32;62.98
21803;BME280;18591;47.080;22.214;2023-02-19T06:48:41;99588.19;;;8.41;63.66
21803;BME280;18591;47.080;22.214;2023-02-19T06:50:45;99589.56;;;8.55;63.94
21803;BME280;18591;47.080;22.214;2023-02-19T06:52:47;99599.94;;;8.67;63.77
21803;BME280;18591;47.080;22.214;2023-02-19T06:54:49;99591.53;;;8.79;64.11
21803;BME280;18591;47.080;22.214;2023-02-19T06:56:52;99607.28;;;8.90;64.03
21803;BME280;18591;47.080;22.214;2023-02-19T06:58:56;99612.41;;;8.98;64.01
21803;BME280;18591;47.080;22.214;2023-02-19T07:01:00;99614.75;;;9.08;63.96
21803;BME280;18591;47.080;22.214;2023-02-19T07:03:03;99616.44;;;9.12;64.12
21803;BME280;18591;47.080;22.214;2023-02-19T07:05:06;99615.28;;;9.20;63.67
21803;BME280;18591;47.080;22.214;2023-02-19T07:07:10;99617.69;;;9.29;63.73
21803;BME280;18591;47.080;22.214;2023-02-19T07:09:12;99608.63;;;9.33;63.44
21803;BME280;18591;47.080;22.214;2023-02-19T07:11:15;99612.06;;;9.38;63.92
21803;BME280;18591;47.080;22.214;2023-02-19T07:13:17;99613.78;;;9.39;64.17
21803;BME280;18591;47.080;22.214;2023-02-19T07:15:19;99612.72;;;9.45;63.72
21803;BME280;18591;47.080;22.214;2023-02-19T07:17:21;99608.06;;;9.50;63.22
21803;BME280;18591;47.080;22.214;2023-02-19T07:19:26;99606.19;;;9.53;63.49
21803;BME280;18591;47.080;22.214;2023-02-19T07:21:28;99600.75;;;9.55;63.43
21803;BME280;18591;47.080;22.214;2023-02-19T07:23:30;99600.59;;;9.59;63.35
21803;BME280;18591;47.080;22.214;2023-02-19T07:25:32;99593.28;;;9.65;63.35
21803;BME280;18591;47.080;22.214;2023-02-19T07:27:35;99600.38;;;9.66;63.38
21803;BME280;18591;47.080;22.214;2023-02-19T07:29:38;99602.06;;;9.70;63.51
21803;BME280;18591;47.080;22.214;2023-02-19T07:31:40;99609.16;;;9.71;63.17
21803;BME280;18591;47.080;22.214;2023-02-19T07:33:43;99608.16;;;9.75;63.18
21803;BME280;18591;47.080;22.214;2023-02-19T07:35:46;99604.34;;;9.82;63.07
21803;BME280;18591;47.080;22.214;2023-02-19T07:37:49;99609.69;;;9.82;63.26
21803;BME280;18591;47.080;22.214;2023-02-19T07:39:51;99595.66;;;9.74;64.00
21803;BME280;18591;47.080;22.214;2023-02-19T07:41:53;99602.53;;;9.82;63.58
21803;BME280;18591;47.080;22.214;2023-02-19T07:44:00;99601.75;;;9.79;63.36
21803;BME280;18591;47.080;22.214;2023-02-19T07:46:07;99591.78;;;9.82;63.46
21803;BME280;18591;47.080;22.214;2023-02-19T07:48:09;99605.97;;;9.86;63.30
21803;BME280;18591;47.080;22.214;2023-02-19T07:50:11;99593.34;;;9.90;63.17
21803;BME280;18591;47.080;22.214;2023-02-19T07:52:14;99594.09;;;9.93;63.46
21803;BME280;18591;47.080;22.214;2023-02-19T07:54:16;99599.47;;;9.93;63.42
21803;BME280;18591;47.080;22.214;2023-02-19T07:56:19;99605.09;;;9.86;63.97
21803;BME280;18591;47.080;22.214;2023-02-19T07:58:21;99605.66;;;9.95;63.45
21803;BME280;18591;47.080;22.214;2023-02-19T08:00:24;99609.03;;;10.02;62.93
21803;BME280;18591;47.080;22.214;2023-02-19T08:02:26;99596.41;;;10.04;63.26
21803;BME280;18591;47.080;22.214;2023-02-19T08:04:47;99600.91;;;10.03;63.48
21803;BME280;18591;47.080;22.214;2023-02-19T08:06:52;99593.97;;;9.96;63.85
21803;BME280;18591;47.080;22.214;2023-02-19T08:08:59;99598.28;;;10.02;63.41
21803;BME280;18591;47.080;22.214;2023-02-19T08:11:02;99598.06;;;10.08;63.15
21803;BME280;18591;47.080;22.214;2023-02-19T08:13:24;99600.75;;;10.08;63.71
21803;BME280;18591;47.080;22.214;2023-02-19T08:15:27;99592.69;;;10.08;63.34
21803;BME280;18591;47.080;22.214;2023-02-19T08:17:29;99596.13;;;10.12;63.36
21803;BME280;18591;47.080;22.214;2023-02-19T08:19:31;99596.13;;;10.12;63.11
21803;BME280;18591;47.080;22.214;2023-02-19T08:21:33;99600.50;;;10.14;63.19
21803;BME280;18591;47.080;22.214;2023-02-19T08:23:36;99607.78;;;10.12;63.49
21803;BME280;18591;47.080;22.214;2023-02-19T08:25:39;99599.72;;;10.12;63.87
21803;BME280;18591;47.080;22.214;2023-02-19T08:27:41;99601.41;;;10.15;63.30
21803;BME280;18591;47.080;22.214;2023-02-19T08:29:46;99607.66;;;10.15;63.35
21803;BME280;18591;47.080;22.214;2023-02-19T08:31:48;99606.56;;;10.21;63.29
21803;BME280;18591;47.080;22.214;2023-02-19T08:33:51;99603.88;;;10.21;63.49
21803;BME280;18591;47.080;22.214;2023-02-19T08:35:53;99594.81;;;10.23;63.45
21803;BME280;18591;47.080;22.214;2023-02-19T08:37:56;99591.31;;;10.21;63.74
21803;BME280;18591;47.080;22.214;2023-02-19T08:39:58;99597.66;;;10.19;64.04
21803;BME280;18591;47.080;22.214;2023-02-19T08:42:00;99603.75;;;10.24;63.67
21803;BME280;18591;47.080;22.214;2023-02-19T08:44:03;99610.81;;;10.28;63.73
21803;BME280;18591;47.080;22.214;2023-02-19T08:46:09;99607.25;;;10.26;63.94
21803;BME280;18591;47.080;22.214;2023-02-19T08:48:12;99603.41;;;10.35;63.50
21803;BME280;18591;47.080;22.214;2023-02-19T08:50:14;99604.19;;;10.38;63.77
21803;BME280;18591;47.080;22.214;2023-02-19T08:52:16;99598.66;;;10.43;63.52
21803;BME280;18591;47.080;22.214;2023-02-19T08:54:19;99586.97;;;10.44;63.36
21803;BME280;18591;47.080;22.214;2023-02-19T08:56:21;99601.53;;;10.37;63.75
21803;BME280;18591;47.080;22.214;2023-02-19T08:58:23;99592.56;;;10.38;64.17
21803;BME280;18591;47.080;22.214;2023-02-19T09:00:28;99596.72;;;10.46;63.58
21803;BME280;18591;47.080;22.214;2023-02-19T09:02:31;99593.06;;;10.48;63.96
21803;BME280;18591;47.080;22.214;2023-02-19T09:04:33;99597.41;;;10.52;63.74
21803;BME280;18591;47.080;22.214;2023-02-19T09:06:37;99588.28;;;10.56;63.67
21803;BME280;18591;47.080;22.214;2023-02-19T09:08:41;99591.69;;;10.61;64.02
21803;BME280;18591;47.080;22.214;2023-02-19T09:10:43;99584.44;;;10.63;63.97
21803;BME280;18591;47.080;22.214;2023-02-19T09:12:45;99589.66;;;10.67;63.72
21803;BME280;18591;47.080;22.214;2023-02-19T09:14:47;99589.41;;;10.74;63.56
21803;BME280;18591;47.080;22.214;2023-02-19T09:16:49;99601.06;;;10.74;63.45
21803;BME280;18591;47.080;22.214;2023-02-19T09:18:51;99591.06;;;10.78;63.56
21803;BME280;18591;47.080;22.214;2023-02-19T09:20:53;99594.75;;;10.75;63.90
21803;BME280;18591;47.080;22.214;2023-02-19T09:22:56;99595.47;;;10.79;63.66
21803;BME280;18591;47.080;22.214;2023-02-19T09:24:59;99589.94;;;10.83;63.53
21803;BME280;18591;47.080;22.214;2023-02-19T09:27:01;99588.03;;;10.87;63.91
21803;BME280;18591;47.080;22.214;2023-02-19T09:29:03;99591.50;;;10.89;63.45
21803;BME280;18591;47.080;22.214;2023-02-19T09:31:07;99590.72;;;10.87;63.55
21803;BME280;18591;47.080;22.214;2023-02-19T09:33:10;99596.84;;;10.90;63.25
21803;BME280;18591;47.080;22.214;2023-02-19T09:35:12;99585.91;;;10.95;63.08
21803;BME280;18591;47.080;22.214;2023-02-19T09:37:14;99581.41;;;10.96;63.19
21803;BME280;18591;47.080;22.214;2023-02-19T09:39:17;99572.31;;;11.00;63.28
21803;BME280;18591;47.080;22.214;2023-02-19T09:41:34;99585.75;;;11.00;63.58
21803;BME280;18591;47.080;22.214;2023-02-19T09:43:41;99581.09;;;11.03;63.46
21803;BME280;18591;47.080;22.214;2023-02-19T09:45:45;99577.44;;;11.06;62.95
21803;BME280;18591;47.080;22.214;2023-02-19T09:47:48;99585.53;;;11.04;63.22
21803;BME280;18591;47.080;22.214;2023-02-19T09:49:58;99574.56;;;11.10;63.53
21803;BME280;18591;47.080;22.214;2023-02-19T09:54:27;99571.44;;;11.21;62.99
21803;BME280;18591;47.080;22.214;2023-02-19T09:56:30;99569.44;;;11.26;63.22
21803;BME280;18591;47.080;22.214;2023-02-19T09:58:48;99571.00;;;11.32;63.14
21803;BME280;18591;47.080;22.214;2023-02-19T10:00:54;99567.16;;;11.38;62.95
21803;BME280;18591;47.080;22.214;2023-02-19T10:03:11;99557.09;;;11.43;63.09
21803;BME280;18591;47.080;22.214;2023-02-19T10:05:15;99565.94;;;11.46;63.31
21803;BME280;18591;47.080;22.214;2023-02-19T10:07:40;99567.06;;;11.41;63.68
21803;BME280;18591;47.080;22.214;2023-02-19T10:09:50;99561.63;;;11.42;63.46
21803;BME280;18591;47.080;22.214;2023-02-19T10:11:54;99557.88;;;11.46;63.55
21803;BME280;18591;47.080;22.214;2023-02-19T10:14:39;99562.44;;;11.44;63.52
21803;BME280;18591;47.080;22.214;2023-02-19T10:16:44;99566.69;;;11.50;63.42
21803;BME280;18591;47.080;22.214;2023-02-19T10:18:47;99562.13;;;11.52;63.28
21803;BME280;18591;47.080;22.214;2023-02-19T10:20:50;99559.41;;;11.52;63.12
21803;BME280;18591;47.080;22.214;2023-02-19T10:23:05;99555.09;;;11.48;63.43
21803;BME280;18591;47.080;22.214;2023-02-19T10:25:12;99548.72;;;11.50;63.30
21803;BME280;18591;47.080;22.214;2023-02-19T10:27:15;99539.53;;;11.56;63.13
21803;BME280;18591;47.080;22.214;2023-02-19T10:29:18;99541.28;;;11.57;63.27
21803;BME280;18591;47.080;22.214;2023-02-19T10:31:23;99534.88;;;11.60;62.91
21803;BME280;18591;47.080;22.214;2023-02-19T10:33:27;99534.88;;;11.60;63.50
21803;BME280;18591;47.080;22.214;2023-02-19T10:35:30;99534.06;;;11.58;63.07
21803;BME280;18591;47.080;22.214;2023-02-19T10:37:44;99528.88;;;11.53;63.58
21803;BME280;18591;47.080;22.214;2023-02-19T10:39:48;99532.34;;;11.57;63.33
21803;BME280;18591;47.080;22.214;2023-02-19T10:41:51;99529.56;;;11.58;63.58
21803;BME280;18591;47.080;22.214;2023-02-19T10:44:13;99525.06;;;11.59;63.67
21803;BME280;18591;47.080;22.214;2023-02-19T10:46:28;99516.72;;;11.65;63.48
21803;BME280;18591;47.080;22.214;2023-02-19T10:48:44;99512.03;;;11.70;63.89
21803;BME280;18591;47.080;22.214;2023-02-19T10:50:50;99512.69;;;11.75;63.74
21803;BME280;18591;47.080;22.214;2023-02-19T10:52:59;99510.81;;;11.77;64.30
21803;BME280;18591;47.080;22.214;2023-02-19T10:55:24;99509.53;;;11.86;64.12
21803;BME280;18591;47.080;22.214;2023-02-19T10:57:29;99513.66;;;11.94;63.73
21803;BME280;18591;47.080;22.214;2023-02-19T10:59:33;99513.47;;;11.99;63.54
21803;BME280;18591;47.080;22.214;2023-02-19T11:01:38;99511.53;;;12.03;63.42
21803;BME280;18591;47.080;22.214;2023-02-19T11:04:16;99503.44;;;12.03;63.64
21803;BME280;18591;47.080;22.214;2023-02-19T11:06:25;99499.41;;;12.13;63.32
21803;BME280;18591;47.080;22.214;2023-02-19T11:08:28;99491.09;;;12.17;63.35
21803;BME280;18591;47.080;22.214;2023-02-19T11:10:40;99491.97;;;12.18;63.23
21803;BME280;18591;47.080;22.214;2023-02-19T11:12:48;99496.34;;;12.20;63.08
21803;BME280;18591;47.080;22.214;2023-02-19T11:14:51;99487.25;;;12.23;63.20
21803;BME280;18591;47.080;22.214;2023-02-19T11:16:55;99494.25;;;12.27;63.09
21803;BME280;18591;47.080;22.214;2023-02-19T11:18:58;99495.00;;;12.31;63.44
21803;BME280;18591;47.080;22.214;2023-02-19T11:21:03;99484.13;;;12.32;62.99
21803;BME280;18591;47.080;22.214;2023-02-19T11:23:14;99481.38;;;12.34;62.90
21803;BME280;18591;47.080;22.214;2023-02-19T11:25:20;99470.44;;;12.37;63.00
21803;BME280;18591;47.080;22.214;2023-02-19T11:27:26;99471.16;;;12.40;62.87
21803;BME280;18591;47.080;22.214;2023-02-19T11:29:28;99456.78;;;12.41;62.91
21803;BME280;18591;47.080;22.214;2023-02-19T11:31:35;99456.78;;;12.41;63.18
21803;BME280;18591;47.080;22.214;2023-02-19T11:38:17;99467.47;;;12.43;63.07
21803;BME280;18591;47.080;22.214;2023-02-19T11:40:24;99465.00;;;12.38;63.38
21803;BME280;18591;47.080;22.214;2023-02-19T11:42:50;99463.31;;;12.36;64.08